sensor_id;sensor_type;location;lat;lon;timestamp;P1;durP1;ratioP1;P2;durP2;ratioP2
76073;SDS011;64776;42.636;24.358;2023-12-20T00:02:55;35.92;;;16.77;;
76073;SDS011;64776;42.636;24.358;2023-12-20T00:05:58;23.70;;;11.60;;
76073;SDS011;64776;42.636;24.358;2023-12-20T00:08:58;44.15;;;17.63;;
76073;SDS011;64776;42.636;24.358;2023-12-20T00:11:59;54.10;;;26.08;;
76073;SDS011;64776;42.636;24.358;2023-12-20T00:15:00;58.00;;;30.48;;
76073;SDS011;64776;42.636;24.358;2023-12-20T00:18:01;60.65;;;29.00;;
76073;SDS011;64776;42.636;24.358;2023-12-20T00:21:03;47.47;;;19.58;;
76073;SDS011;64776;42.636;24.358;2023-12-20T00:24:04;44.30;;;21.52;;
76073;SDS011;64776;42.636;24.358;2023-12-20T00:27:05;48.22;;;22.58;;
76073;SDS011;64776;42.636;24.358;2023-12-20T00:30:06;49.13;;;22.38;;
76073;SDS011;64776;42.636;24.358;2023-12-20T00:33:08;48.40;;;21.15;;
76073;SDS011;64776;42.636;24.358;2023-12-20T00:36:10;33.33;;;17.88;;
76073;SDS011;64776;42.636;24.358;2023-12-20T00:39:11;42.95;;;17.23;;
76073;SDS011;64776;42.636;24.358;2023-12-20T00:42:11;37.65;;;14.73;;
76073;SDS011;64776;42.636;24.358;2023-12-20T00:45:12;31.38;;;13.25;;
76073;SDS011;64776;42.636;24.358;2023-12-20T00:48:13;80.05;;;34.42;;
76073;SDS011;64776;42.636;24.358;2023-12-20T00:51:15;109.90;;;42.30;;
76073;SDS011;64776;42.636;24.358;2023-12-20T00:54:16;86.05;;;38.90;;
76073;SDS011;64776;42.636;24.358;2023-12-20T00:57:17;101.72;;;40.35;;
76073;SDS011;64776;42.636;24.358;2023-12-20T01:00:17;78.50;;;32.05;;
76073;SDS011;64776;42.636;24.358;2023-12-20T01:03:18;61.22;;;26.15;;
76073;SDS011;64776;42.636;24.358;2023-12-20T01:06:20;47.05;;;21.63;;
76073;SDS011;64776;42.636;24.358;2023-12-20T01:09:21;46.25;;;19.42;;
76073;SDS011;64776;42.636;24.358;2023-12-20T01:12:22;65.70;;;29.20;;
76073;SDS011;64776;42.636;24.358;2023-12-20T01:15:23;67.93;;;33.80;;
76073;SDS011;64776;42.636;24.358;2023-12-20T01:18:23;54.65;;;22.98;;
76073;SDS011;64776;42.636;24.358;2023-12-20T01:21:26;36.80;;;17.75;;
76073;SDS011;64776;42.636;24.358;2023-12-20T01:24:26;41.45;;;20.50;;
76073;SDS011;64776;42.636;24.358;2023-12-20T01:27:27;42.67;;;18.42;;
76073;SDS011;64776;42.636;24.358;2023-12-20T01:30:28;25.73;;;12.20;;
76073;SDS011;64776;42.636;24.358;2023-12-20T01:33:29;37.70;;;15.60;;
76073;SDS011;64776;42.636;24.358;2023-12-20T01:36:32;42.15;;;16.33;;
76073;SDS011;64776;42.636;24.358;2023-12-20T01:39:32;31.10;;;13.80;;
76073;SDS011;64776;42.636;24.358;2023-12-20T01:42:33;59.42;;;22.52;;
76073;SDS011;64776;42.636;24.358;2023-12-20T01:45:34;58.28;;;25.05;;
76073;SDS011;64776;42.636;24.358;2023-12-20T01:48:34;27.48;;;12.18;;
76073;SDS011;64776;42.636;24.358;2023-12-20T01:51:37;16.83;;;7.53;;
76073;SDS011;64776;42.636;24.358;2023-12-20T01:54:39;23.67;;;10.77;;
76073;SDS011;64776;42.636;24.358;2023-12-20T01:57:42;25.20;;;10.05;;
76073;SDS011;64776;42.636;24.358;2023-12-20T02:00:43;25.80;;;10.43;;
76073;SDS011;64776;42.636;24.358;2023-12-20T02:03:44;30.30;;;13.68;;
76073;SDS011;64776;42.636;24.358;2023-12-20T02:06:47;34.22;;;16.38;;
76073;SDS011;64776;42.636;24.358;2023-12-20T02:09:52;42.50;;;18.45;;
76073;SDS011;64776;42.636;24.358;2023-12-20T02:12:53;22.88;;;12.68;;
76073;SDS011;64776;42.636;24.358;2023-12-20T02:15:54;16.65;;;7.32;;
76073;SDS011;64776;42.636;24.358;2023-12-20T02:18:55;35.03;;;9.70;;
76073;SDS011;64776;42.636;24.358;2023-12-20T02:22:06;38.90;;;15.90;;
76073;SDS011;64776;42.636;24.358;2023-12-20T02:25:08;33.97;;;16.88;;
76073;SDS011;64776;42.636;24.358;2023-12-20T02:28:08;37.40;;;15.52;;
76073;SDS011;64776;42.636;24.358;2023-12-20T02:31:09;35.25;;;13.82;;
76073;SDS011;64776;42.636;24.358;2023-12-20T02:34:10;32.03;;;15.93;;
76073;SDS011;64776;42.636;24.358;2023-12-20T02:37:12;34.30;;;14.13;;
76073;SDS011;64776;42.636;24.358;2023-12-20T02:40:13;31.42;;;10.43;;
76073;SDS011;64776;42.636;24.358;2023-12-20T02:43:14;25.90;;;12.88;;
76073;SDS011;64776;42.636;24.358;2023-12-20T02:46:14;26.73;;;13.65;;
76073;SDS011;64776;42.636;24.358;2023-12-20T02:49:17;17.58;;;7.40;;
76073;SDS011;64776;42.636;24.358;2023-12-20T02:52:19;36.90;;;14.82;;
76073;SDS011;64776;42.636;24.358;2023-12-20T02:55:20;38.78;;;16.80;;
76073;SDS011;64776;42.636;24.358;2023-12-20T02:58:20;43.85;;;15.55;;
76073;SDS011;64776;42.636;24.358;2023-12-20T03:01:21;43.20;;;17.20;;
76073;SDS011;64776;42.636;24.358;2023-12-20T03:04:22;46.30;;;17.67;;
76073;SDS011;64776;42.636;24.358;2023-12-20T03:07:24;33.22;;;12.55;;
76073;SDS011;64776;42.636;24.358;2023-12-20T03:10:25;36.47;;;15.00;;
76073;SDS011;64776;42.636;24.358;2023-12-20T03:13:25;61.92;;;21.30;;
76073;SDS011;64776;42.636;24.358;2023-12-20T03:16:26;67.47;;;26.38;;
76073;SDS011;64776;42.636;24.358;2023-12-20T03:19:27;65.72;;;23.73;;
76073;SDS011;64776;42.636;24.358;2023-12-20T03:22:29;64.60;;;23.67;;
76073;SDS011;64776;42.636;24.358;2023-12-20T03:25:30;56.10;;;21.70;;
76073;SDS011;64776;42.636;24.358;2023-12-20T03:28:31;58.05;;;22.95;;
76073;SDS011;64776;42.636;24.358;2023-12-20T03:31:32;50.95;;;20.38;;
76073;SDS011;64776;42.636;24.358;2023-12-20T03:34:32;43.00;;;18.48;;
76073;SDS011;64776;42.636;24.358;2023-12-20T03:37:34;48.70;;;19.33;;
76073;SDS011;64776;42.636;24.358;2023-12-20T03:40:35;44.22;;;16.83;;
76073;SDS011;64776;42.636;24.358;2023-12-20T03:43:36;53.50;;;17.90;;
76073;SDS011;64776;42.636;24.358;2023-12-20T03:46:37;51.45;;;21.42;;
76073;SDS011;64776;42.636;24.358;2023-12-20T03:49:38;60.42;;;27.23;;
76073;SDS011;64776;42.636;24.358;2023-12-20T03:52:40;57.33;;;23.70;;
76073;SDS011;64776;42.636;24.358;2023-12-20T03:55:41;66.03;;;28.15;;
76073;SDS011;64776;42.636;24.358;2023-12-20T03:58:42;46.25;;;20.35;;
76073;SDS011;64776;42.636;24.358;2023-12-20T04:01:43;142.48;;;59.88;;
76073;SDS011;64776;42.636;24.358;2023-12-20T04:04:44;93.78;;;35.58;;
76073;SDS011;64776;42.636;24.358;2023-12-20T04:07:46;60.60;;;27.95;;
76073;SDS011;64776;42.636;24.358;2023-12-20T04:10:46;51.58;;;22.80;;
76073;SDS011;64776;42.636;24.358;2023-12-20T04:13:47;45.47;;;21.65;;
76073;SDS011;64776;42.636;24.358;2023-12-20T04:16:48;47.15;;;21.75;;
76073;SDS011;64776;42.636;24.358;2023-12-20T04:19:49;43.40;;;19.92;;
76073;SDS011;64776;42.636;24.358;2023-12-20T04:22:51;42.13;;;15.95;;
76073;SDS011;64776;42.636;24.358;2023-12-20T04:25:51;51.80;;;26.08;;
76073;SDS011;64776;42.636;24.358;2023-12-20T04:28:52;40.40;;;21.92;;
76073;SDS011;64776;42.636;24.358;2023-12-20T04:31:53;48.78;;;23.52;;
76073;SDS011;64776;42.636;24.358;2023-12-20T04:34:59;47.48;;;15.87;;
76073;SDS011;64776;42.636;24.358;2023-12-20T04:38:02;46.58;;;21.13;;
76073;SDS011;64776;42.636;24.358;2023-12-20T04:41:03;38.08;;;16.48;;
76073;SDS011;64776;42.636;24.358;2023-12-20T04:44:03;33.53;;;13.45;;
76073;SDS011;64776;42.636;24.358;2023-12-20T04:47:04;47.38;;;21.67;;
76073;SDS011;64776;42.636;24.358;2023-12-20T04:50:05;49.20;;;22.40;;
76073;SDS011;64776;42.636;24.358;2023-12-20T04:53:08;60.78;;;25.92;;
76073;SDS011;64776;42.636;24.358;2023-12-20T04:56:09;52.22;;;22.80;;
76073;SDS011;64776;42.636;24.358;2023-12-20T04:59:10;61.35;;;27.50;;
76073;SDS011;64776;42.636;24.358;2023-12-20T05:02:11;61.28;;;30.05;;
76073;SDS011;64776;42.636;24.358;2023-12-20T05:05:11;39.90;;;18.95;;
76073;SDS011;64776;42.636;24.358;2023-12-20T05:08:14;46.00;;;18.15;;
76073;SDS011;64776;42.636;24.358;2023-12-20T05:11:14;33.75;;;19.90;;
76073;SDS011;64776;42.636;24.358;2023-12-20T05:14:15;44.90;;;20.42;;
76073;SDS011;64776;42.636;24.358;2023-12-20T05:17:16;85.93;;;37.22;;
76073;SDS011;64776;42.636;24.358;2023-12-20T05:20:18;47.05;;;21.85;;
76073;SDS011;64776;42.636;24.358;2023-12-20T05:23:20;72.28;;;29.90;;
76073;SDS011;64776;42.636;24.358;2023-12-20T05:26:20;79.78;;;39.38;;
76073;SDS011;64776;42.636;24.358;2023-12-20T05:29:21;71.03;;;35.47;;
76073;SDS011;64776;42.636;24.358;2023-12-20T05:32:22;52.50;;;27.85;;
76073;SDS011;64776;42.636;24.358;2023-12-20T05:35:23;59.63;;;28.30;;
76073;SDS011;64776;42.636;24.358;2023-12-20T05:38:26;74.15;;;32.72;;
76073;SDS011;64776;42.636;24.358;2023-12-20T05:41:27;64.93;;;30.70;;
76073;SDS011;64776;42.636;24.358;2023-12-20T05:44:27;60.58;;;31.38;;
76073;SDS011;64776;42.636;24.358;2023-12-20T05:47:28;74.45;;;30.75;;
76073;SDS011;64776;42.636;24.358;2023-12-20T05:50:29;63.17;;;32.47;;
76073;SDS011;64776;42.636;24.358;2023-12-20T05:53:31;73.45;;;37.50;;
76073;SDS011;64776;42.636;24.358;2023-12-20T05:56:32;56.70;;;22.85;;
76073;SDS011;64776;42.636;24.358;2023-12-20T05:59:32;71.90;;;31.10;;
76073;SDS011;64776;42.636;24.358;2023-12-20T06:02:33;45.47;;;25.13;;
76073;SDS011;64776;42.636;24.358;2023-12-20T06:05:34;46.33;;;25.13;;
76073;SDS011;64776;42.636;24.358;2023-12-20T06:08:36;76.82;;;35.28;;
76073;SDS011;64776;42.636;24.358;2023-12-20T06:11:37;98.45;;;43.38;;
76073;SDS011;64776;42.636;24.358;2023-12-20T06:14:38;107.40;;;53.97;;
76073;SDS011;64776;42.636;24.358;2023-12-20T06:17:38;102.20;;;47.53;;
76073;SDS011;64776;42.636;24.358;2023-12-20T06:20:39;231.80;;;94.40;;
76073;SDS011;64776;42.636;24.358;2023-12-20T06:23:41;262.17;;;115.50;;
76073;SDS011;64776;42.636;24.358;2023-12-20T06:26:42;314.45;;;118.80;;
76073;SDS011;64776;42.636;24.358;2023-12-20T06:29:43;253.13;;;98.03;;
76073;SDS011;64776;42.636;24.358;2023-12-20T06:32:44;235.38;;;99.20;;
76073;SDS011;64776;42.636;24.358;2023-12-20T06:35:44;261.17;;;108.82;;
76073;SDS011;64776;42.636;24.358;2023-12-20T06:38:46;191.98;;;84.80;;
76073;SDS011;64776;42.636;24.358;2023-12-20T06:41:47;113.38;;;52.63;;
76073;SDS011;64776;42.636;24.358;2023-12-20T06:44:48;133.98;;;59.55;;
76073;SDS011;64776;42.636;24.358;2023-12-20T06:47:49;150.75;;;64.65;;
76073;SDS011;64776;42.636;24.358;2023-12-20T06:50:49;131.80;;;58.97;;
76073;SDS011;64776;42.636;24.358;2023-12-20T06:53:52;124.90;;;62.85;;
76073;SDS011;64776;42.636;24.358;2023-12-20T06:56:52;111.53;;;48.95;;
76073;SDS011;64776;42.636;24.358;2023-12-20T06:59:53;134.65;;;56.40;;
76073;SDS011;64776;42.636;24.358;2023-12-20T07:02:54;132.05;;;57.15;;
76073;SDS011;64776;42.636;24.358;2023-12-20T07:05:54;105.38;;;41.72;;
76073;SDS011;64776;42.636;24.358;2023-12-20T07:08:57;79.93;;;38.58;;
76073;SDS011;64776;42.636;24.358;2023-12-20T07:11:57;98.53;;;44.35;;
76073;SDS011;64776;42.636;24.358;2023-12-20T07:14:58;77.30;;;42.00;;
76073;SDS011;64776;42.636;24.358;2023-12-20T07:17:59;191.50;;;86.28;;
76073;SDS011;64776;42.636;24.358;2023-12-20T07:21:00;134.63;;;68.28;;
76073;SDS011;64776;42.636;24.358;2023-12-20T07:24:02;101.63;;;56.35;;
76073;SDS011;64776;42.636;24.358;2023-12-20T07:27:03;141.32;;;68.60;;
76073;SDS011;64776;42.636;24.358;2023-12-20T07:30:04;165.30;;;79.45;;
76073;SDS011;64776;42.636;24.358;2023-12-20T07:33:06;160.52;;;82.68;;
76073;SDS011;64776;42.636;24.358;2023-12-20T07:36:07;207.05;;;91.90;;
76073;SDS011;64776;42.636;24.358;2023-12-20T07:39:09;113.07;;;61.45;;
76073;SDS011;64776;42.636;24.358;2023-12-20T07:42:09;66.03;;;37.47;;
76073;SDS011;64776;42.636;24.358;2023-12-20T07:45:10;87.75;;;41.35;;
76073;SDS011;64776;42.636;24.358;2023-12-20T07:48:11;57.70;;;26.85;;
76073;SDS011;64776;42.636;24.358;2023-12-20T07:51:12;71.65;;;34.95;;
76073;SDS011;64776;42.636;24.358;2023-12-20T07:54:14;104.90;;;49.92;;
76073;SDS011;64776;42.636;24.358;2023-12-20T07:57:15;68.72;;;34.50;;
76073;SDS011;64776;42.636;24.358;2023-12-20T08:00:17;82.95;;;35.92;;
76073;SDS011;64776;42.636;24.358;2023-12-20T08:03:18;75.30;;;36.03;;
76073;SDS011;64776;42.636;24.358;2023-12-20T08:06:19;94.13;;;44.58;;
76073;SDS011;64776;42.636;24.358;2023-12-20T08:09:21;117.88;;;49.33;;
76073;SDS011;64776;42.636;24.358;2023-12-20T08:12:30;115.13;;;52.17;;
76073;SDS011;64776;42.636;24.358;2023-12-20T08:15:31;126.57;;;59.92;;
76073;SDS011;64776;42.636;24.358;2023-12-20T08:18:32;57.03;;;29.00;;
76073;SDS011;64776;42.636;24.358;2023-12-20T08:21:32;128.30;;;54.15;;
76073;SDS011;64776;42.636;24.358;2023-12-20T08:24:35;142.80;;;68.72;;
76073;SDS011;64776;42.636;24.358;2023-12-20T08:27:40;134.40;;;60.95;;
76073;SDS011;64776;42.636;24.358;2023-12-20T08:30:41;133.90;;;63.33;;
76073;SDS011;64776;42.636;24.358;2023-12-20T08:33:42;127.15;;;61.55;;
76073;SDS011;64776;42.636;24.358;2023-12-20T08:36:43;104.97;;;55.35;;
76073;SDS011;64776;42.636;24.358;2023-12-20T08:39:46;80.38;;;40.45;;
76073;SDS011;64776;42.636;24.358;2023-12-20T08:42:46;105.28;;;49.50;;
76073;SDS011;64776;42.636;24.358;2023-12-20T08:45:47;118.82;;;58.45;;
76073;SDS011;64776;42.636;24.358;2023-12-20T08:48:48;133.48;;;67.38;;
76073;SDS011;64776;42.636;24.358;2023-12-20T08:51:48;621.90;;;325.42;;
76073;SDS011;64776;42.636;24.358;2023-12-20T08:54:51;139.07;;;71.30;;
76073;SDS011;64776;42.636;24.358;2023-12-20T08:57:51;122.78;;;60.78;;
76073;SDS011;64776;42.636;24.358;2023-12-20T09:00:52;123.43;;;59.88;;
76073;SDS011;64776;42.636;24.358;2023-12-20T09:03:53;115.82;;;58.53;;
76073;SDS011;64776;42.636;24.358;2023-12-20T09:06:53;101.32;;;52.03;;
76073;SDS011;64776;42.636;24.358;2023-12-20T09:09:56;79.30;;;39.15;;
76073;SDS011;64776;42.636;24.358;2023-12-20T09:12:56;50.03;;;23.45;;
76073;SDS011;64776;42.636;24.358;2023-12-20T09:15:57;42.72;;;21.45;;
76073;SDS011;64776;42.636;24.358;2023-12-20T09:18:58;49.47;;;23.98;;
76073;SDS011;64776;42.636;24.358;2023-12-20T09:21:59;41.88;;;21.70;;
76073;SDS011;64776;42.636;24.358;2023-12-20T09:25:01;203.55;;;92.40;;
76073;SDS011;64776;42.636;24.358;2023-12-20T09:28:02;106.55;;;50.38;;
76073;SDS011;64776;42.636;24.358;2023-12-20T09:31:04;58.13;;;29.48;;
76073;SDS011;64776;42.636;24.358;2023-12-20T09:34:04;47.15;;;24.40;;
76073;SDS011;64776;42.636;24.358;2023-12-20T09:37:05;74.82;;;28.73;;
76073;SDS011;64776;42.636;24.358;2023-12-20T09:40:08;54.23;;;22.90;;
76073;SDS011;64776;42.636;24.358;2023-12-20T09:43:14;69.10;;;31.50;;
76073;SDS011;64776;42.636;24.358;2023-12-20T09:46:15;78.43;;;37.25;;
76073;SDS011;64776;42.636;24.358;2023-12-20T09:49:23;93.07;;;46.47;;
76073;SDS011;64776;42.636;24.358;2023-12-20T09:52:25;119.93;;;58.00;;
76073;SDS011;64776;42.636;24.358;2023-12-20T09:55:28;117.82;;;58.35;;
76073;SDS011;64776;42.636;24.358;2023-12-20T09:58:30;114.50;;;57.40;;
76073;SDS011;64776;42.636;24.358;2023-12-20T10:01:31;125.57;;;60.08;;
76073;SDS011;64776;42.636;24.358;2023-12-20T10:04:33;114.78;;;58.13;;
76073;SDS011;64776;42.636;24.358;2023-12-20T10:07:35;124.25;;;62.13;;
76073;SDS011;64776;42.636;24.358;2023-12-20T10:10:37;98.30;;;49.22;;
76073;SDS011;64776;42.636;24.358;2023-12-20T10:13:39;89.38;;;46.28;;
76073;SDS011;64776;42.636;24.358;2023-12-20T10:16:40;84.60;;;43.35;;
76073;SDS011;64776;42.636;24.358;2023-12-20T10:19:42;103.82;;;50.13;;
76073;SDS011;64776;42.636;24.358;2023-12-20T10:22:43;118.40;;;58.85;;
76073;SDS011;64776;42.636;24.358;2023-12-20T10:25:50;111.32;;;59.92;;
76073;SDS011;64776;42.636;24.358;2023-12-20T10:28:56;102.90;;;60.60;;
76073;SDS011;64776;42.636;24.358;2023-12-20T10:32:01;86.75;;;47.83;;
76073;SDS011;64776;42.636;24.358;2023-12-20T10:35:23;120.70;;;66.40;;
76073;SDS011;64776;42.636;24.358;2023-12-20T10:38:24;114.20;;;70.10;;
76073;SDS011;64776;42.636;24.358;2023-12-20T10:41:26;108.75;;;61.20;;
76073;SDS011;64776;42.636;24.358;2023-12-20T10:44:28;120.75;;;71.88;;
76073;SDS011;64776;42.636;24.358;2023-12-20T10:47:29;153.27;;;79.78;;
76073;SDS011;64776;42.636;24.358;2023-12-20T10:50:31;110.90;;;60.10;;
76073;SDS011;64776;42.636;24.358;2023-12-20T10:53:32;88.28;;;47.92;;
76073;SDS011;64776;42.636;24.358;2023-12-20T10:56:35;81.22;;;43.08;;
76073;SDS011;64776;42.636;24.358;2023-12-20T10:59:38;67.22;;;36.08;;
76073;SDS011;64776;42.636;24.358;2023-12-20T11:02:40;62.83;;;32.78;;
76073;SDS011;64776;42.636;24.358;2023-12-20T11:05:43;44.60;;;23.20;;
76073;SDS011;64776;42.636;24.358;2023-12-20T11:08:50;40.20;;;23.02;;
76073;SDS011;64776;42.636;24.358;2023-12-20T11:11:59;27.60;;;15.50;;
76073;SDS011;64776;42.636;24.358;2023-12-20T11:15:06;24.13;;;14.02;;
76073;SDS011;64776;42.636;24.358;2023-12-20T11:18:08;27.92;;;14.88;;
76073;SDS011;64776;42.636;24.358;2023-12-20T11:21:09;32.90;;;17.35;;
76073;SDS011;64776;42.636;24.358;2023-12-20T11:24:11;35.08;;;19.30;;
76073;SDS011;64776;42.636;24.358;2023-12-20T11:27:14;26.02;;;14.35;;
76073;SDS011;64776;42.636;24.358;2023-12-20T11:30:15;22.90;;;13.38;;
76073;SDS011;64776;42.636;24.358;2023-12-20T11:33:15;45.10;;;27.92;;
76073;SDS011;64776;42.636;24.358;2023-12-20T11:36:18;28.20;;;14.80;;
76073;SDS011;64776;42.636;24.358;2023-12-20T11:39:20;32.58;;;15.95;;
76073;SDS011;64776;42.636;24.358;2023-12-20T11:42:23;39.60;;;20.42;;
76073;SDS011;64776;42.636;24.358;2023-12-20T11:45:24;36.10;;;18.95;;
76073;SDS011;64776;42.636;24.358;2023-12-20T11:48:25;30.98;;;16.08;;
76073;SDS011;64776;42.636;24.358;2023-12-20T11:51:26;57.88;;;30.52;;
76073;SDS011;64776;42.636;24.358;2023-12-20T11:54:26;97.40;;;43.20;;
76073;SDS011;64776;42.636;24.358;2023-12-20T11:57:28;94.32;;;42.40;;
76073;SDS011;64776;42.636;24.358;2023-12-20T12:00:29;38.78;;;20.48;;
76073;SDS011;64776;42.636;24.358;2023-12-20T12:03:30;32.95;;;16.08;;
76073;SDS011;64776;42.636;24.358;2023-12-20T12:06:31;29.42;;;13.48;;
76073;SDS011;64776;42.636;24.358;2023-12-20T12:09:32;35.38;;;18.38;;
76073;SDS011;64776;42.636;24.358;2023-12-20T12:12:34;19.05;;;11.10;;
76073;SDS011;64776;42.636;24.358;2023-12-20T12:15:35;23.45;;;14.05;;
76073;SDS011;64776;42.636;24.358;2023-12-20T12:18:36;19.58;;;10.68;;
76073;SDS011;64776;42.636;24.358;2023-12-20T12:21:37;16.67;;;8.68;;
76073;SDS011;64776;42.636;24.358;2023-12-20T12:24:38;23.98;;;11.00;;
76073;SDS011;64776;42.636;24.358;2023-12-20T12:27:43;22.48;;;11.15;;
76073;SDS011;64776;42.636;24.358;2023-12-20T12:33:55;24.20;;;12.52;;
76073;SDS011;64776;42.636;24.358;2023-12-20T12:36:56;34.33;;;15.70;;
76073;SDS011;64776;42.636;24.358;2023-12-20T12:39:57;32.22;;;12.57;;
76073;SDS011;64776;42.636;24.358;2023-12-20T12:42:59;35.88;;;14.23;;
76073;SDS011;64776;42.636;24.358;2023-12-20T12:46:01;152.02;;;57.75;;
76073;SDS011;64776;42.636;24.358;2023-12-20T12:49:02;162.02;;;69.70;;
76073;SDS011;64776;42.636;24.358;2023-12-20T12:52:03;117.25;;;49.30;;
76073;SDS011;64776;42.636;24.358;2023-12-20T12:55:05;62.72;;;26.58;;
76073;SDS011;64776;42.636;24.358;2023-12-20T12:58:07;53.10;;;22.50;;
76073;SDS011;64776;42.636;24.358;2023-12-20T13:01:08;59.63;;;27.10;;
76073;SDS011;64776;42.636;24.358;2023-12-20T13:04:09;47.88;;;21.70;;
76073;SDS011;64776;42.636;24.358;2023-12-20T13:07:09;50.70;;;26.05;;
76073;SDS011;64776;42.636;24.358;2023-12-20T13:10:10;57.38;;;26.70;;
76073;SDS011;64776;42.636;24.358;2023-12-20T13:13:13;88.95;;;39.80;;
76073;SDS011;64776;42.636;24.358;2023-12-20T13:16:13;112.05;;;52.90;;
76073;SDS011;64776;42.636;24.358;2023-12-20T13:19:14;106.82;;;53.65;;
76073;SDS011;64776;42.636;24.358;2023-12-20T13:22:15;105.82;;;49.08;;
76073;SDS011;64776;42.636;24.358;2023-12-20T13:25:16;134.63;;;68.13;;
76073;SDS011;64776;42.636;24.358;2023-12-20T13:28:18;127.30;;;63.92;;
76073;SDS011;64776;42.636;24.358;2023-12-20T13:31:19;161.18;;;80.80;;
76073;SDS011;64776;42.636;24.358;2023-12-20T13:34:20;152.18;;;81.18;;
76073;SDS011;64776;42.636;24.358;2023-12-20T13:37:21;143.60;;;77.05;;
76073;SDS011;64776;42.636;24.358;2023-12-20T13:40:21;126.53;;;67.32;;
76073;SDS011;64776;42.636;24.358;2023-12-20T13:43:24;115.75;;;63.25;;
76073;SDS011;64776;42.636;24.358;2023-12-20T13:46:24;100.63;;;51.95;;
76073;SDS011;64776;42.636;24.358;2023-12-20T13:49:25;109.53;;;53.03;;
76073;SDS011;64776;42.636;24.358;2023-12-20T13:52:26;105.07;;;54.00;;
76073;SDS011;64776;42.636;24.358;2023-12-20T13:55:27;99.28;;;53.22;;
76073;SDS011;64776;42.636;24.358;2023-12-20T13:58:29;101.82;;;53.25;;
76073;SDS011;64776;42.636;24.358;2023-12-20T14:01:30;108.10;;;50.50;;
76073;SDS011;64776;42.636;24.358;2023-12-20T14:04:31;134.35;;;62.80;;
76073;SDS011;64776;42.636;24.358;2023-12-20T14:07:32;136.27;;;64.00;;
76073;SDS011;64776;42.636;24.358;2023-12-20T14:10:32;157.40;;;69.47;;
76073;SDS011;64776;42.636;24.358;2023-12-20T14:13:34;148.73;;;74.00;;
76073;SDS011;64776;42.636;24.358;2023-12-20T14:16:35;160.40;;;80.95;;
76073;SDS011;64776;42.636;24.358;2023-12-20T14:19:36;163.60;;;82.55;;
76073;SDS011;64776;42.636;24.358;2023-12-20T14:22:37;174.73;;;86.95;;
76073;SDS011;64776;42.636;24.358;2023-12-20T14:25:38;177.10;;;86.03;;
76073;SDS011;64776;42.636;24.358;2023-12-20T14:28:40;154.45;;;74.03;;
76073;SDS011;64776;42.636;24.358;2023-12-20T14:31:41;196.60;;;94.20;;
76073;SDS011;64776;42.636;24.358;2023-12-20T14:34:41;192.48;;;94.90;;
76073;SDS011;64776;42.636;24.358;2023-12-20T14:37:42;209.52;;;95.45;;
76073;SDS011;64776;42.636;24.358;2023-12-20T14:40:43;183.05;;;83.65;;
76073;SDS011;64776;42.636;24.358;2023-12-20T14:43:45;189.27;;;85.60;;
76073;SDS011;64776;42.636;24.358;2023-12-20T14:46:46;174.85;;;76.50;;
76073;SDS011;64776;42.636;24.358;2023-12-20T14:49:47;160.23;;;74.72;;
76073;SDS011;64776;42.636;24.358;2023-12-20T14:52:47;167.88;;;74.05;;
76073;SDS011;64776;42.636;24.358;2023-12-20T14:55:48;156.43;;;73.53;;
76073;SDS011;64776;42.636;24.358;2023-12-20T14:58:50;147.07;;;71.07;;
76073;SDS011;64776;42.636;24.358;2023-12-20T15:01:51;153.05;;;67.97;;
76073;SDS011;64776;42.636;24.358;2023-12-20T15:04:52;137.13;;;67.88;;
76073;SDS011;64776;42.636;24.358;2023-12-20T15:07:52;132.80;;;64.22;;
76073;SDS011;64776;42.636;24.358;2023-12-20T15:10:53;162.60;;;73.25;;
76073;SDS011;64776;42.636;24.358;2023-12-20T15:13:55;203.80;;;95.82;;
76073;SDS011;64776;42.636;24.358;2023-12-20T15:16:56;214.88;;;102.78;;
76073;SDS011;64776;42.636;24.358;2023-12-20T15:19:58;156.95;;;77.00;;
76073;SDS011;64776;42.636;24.358;2023-12-20T15:22:58;166.60;;;84.07;;
76073;SDS011;64776;42.636;24.358;2023-12-20T15:25:59;205.32;;;99.15;;
76073;SDS011;64776;42.636;24.358;2023-12-20T15:29:02;171.65;;;86.55;;
76073;SDS011;64776;42.636;24.358;2023-12-20T15:32:03;178.98;;;84.57;;
76073;SDS011;64776;42.636;24.358;2023-12-20T15:35:04;165.95;;;77.85;;
76073;SDS011;64776;42.636;24.358;2023-12-20T15:38:06;163.23;;;80.68;;
76073;SDS011;64776;42.636;24.358;2023-12-20T15:41:06;162.88;;;79.68;;
76073;SDS011;64776;42.636;24.358;2023-12-20T15:44:09;194.25;;;94.85;;
76073;SDS011;64776;42.636;24.358;2023-12-20T15:47:09;193.98;;;95.22;;
76073;SDS011;64776;42.636;24.358;2023-12-20T15:50:11;148.95;;;75.25;;
76073;SDS011;64776;42.636;24.358;2023-12-20T15:53:12;124.90;;;61.65;;
76073;SDS011;64776;42.636;24.358;2023-12-20T15:56:12;132.85;;;67.72;;
76073;SDS011;64776;42.636;24.358;2023-12-20T15:59:15;109.15;;;54.97;;
76073;SDS011;64776;42.636;24.358;2023-12-20T16:02:15;127.15;;;52.35;;
76073;SDS011;64776;42.636;24.358;2023-12-20T16:05:16;189.43;;;72.97;;
76073;SDS011;64776;42.636;24.358;2023-12-20T16:08:17;178.68;;;73.07;;
76073;SDS011;64776;42.636;24.358;2023-12-20T16:11:18;172.57;;;72.95;;
76073;SDS011;64776;42.636;24.358;2023-12-20T16:14:20;159.77;;;73.88;;
76073;SDS011;64776;42.636;24.358;2023-12-20T16:17:20;172.63;;;74.10;;
76073;SDS011;64776;42.636;24.358;2023-12-20T16:20:21;236.52;;;88.88;;
76073;SDS011;64776;42.636;24.358;2023-12-20T16:23:22;226.05;;;91.20;;
76073;SDS011;64776;42.636;24.358;2023-12-20T16:26:23;241.70;;;99.88;;
76073;SDS011;64776;42.636;24.358;2023-12-20T16:29:25;238.73;;;102.70;;
76073;SDS011;64776;42.636;24.358;2023-12-20T16:32:26;195.80;;;84.05;;
76073;SDS011;64776;42.636;24.358;2023-12-20T16:35:26;226.70;;;105.05;;
76073;SDS011;64776;42.636;24.358;2023-12-20T16:38:27;229.02;;;98.43;;
76073;SDS011;64776;42.636;24.358;2023-12-20T16:41:28;210.85;;;97.43;;
76073;SDS011;64776;42.636;24.358;2023-12-20T16:44:30;239.40;;;100.38;;
76073;SDS011;64776;42.636;24.358;2023-12-20T16:47:31;207.27;;;92.55;;
76073;SDS011;64776;42.636;24.358;2023-12-20T16:50:31;144.13;;;66.22;;
76073;SDS011;64776;42.636;24.358;2023-12-20T16:53:32;204.90;;;93.00;;
76073;SDS011;64776;42.636;24.358;2023-12-20T16:56:33;176.38;;;81.68;;
76073;SDS011;64776;42.636;24.358;2023-12-20T16:59:35;187.20;;;81.90;;
76073;SDS011;64776;42.636;24.358;2023-12-20T17:02:36;181.82;;;83.68;;
76073;SDS011;64776;42.636;24.358;2023-12-20T17:05:36;145.15;;;65.57;;
76073;SDS011;64776;42.636;24.358;2023-12-20T17:08:37;166.07;;;73.07;;
76073;SDS011;64776;42.636;24.358;2023-12-20T17:11:38;168.07;;;72.80;;
76073;SDS011;64776;42.636;24.358;2023-12-20T17:14:40;161.43;;;74.07;;
76073;SDS011;64776;42.636;24.358;2023-12-20T17:17:41;161.20;;;74.47;;
76073;SDS011;64776;42.636;24.358;2023-12-20T17:20:41;135.75;;;65.30;;
76073;SDS011;64776;42.636;24.358;2023-12-20T17:23:42;139.50;;;64.90;;